Time;durP1;ratioP1;P1;durP2;ratioP2;P2;SDS_P1;SDS_P2;PMS_P1;PMS_P2;Temp;Humidity;BMP_temperature;BMP_pressure;BME280_temperature;BME280_humidity;BME280_pressure;Samples;Min_cycle;Max_cycle;Signal;HPM_P1;HPM_P2
2023/05/24 00:01:08;;;;;;;10.43;2.63;;;;;;;-145.18;100.00;46705.31;5041267;28;20137;-63
2023/05/24 00:03:38;;;;;;;9.10;2.93;;;;;;;-145.18;100.00;46707.28;5045782;28;20029;-63
2023/05/24 00:06:05;;;;;;;19.83;2.83;;;;;;;-145.18;100.00;46707.28;5049152;28;20044;-63
2023/05/24 00:08:31;;;;;;;14.13;3.50;;;;;;;-145.18;100.00;46711.19;5045127;28;20278;-63
2023/05/24 00:10:57;;;;;;;16.17;3.17;;;;;;;-145.18;100.00;46707.28;5047614;28;20313;-63
2023/05/24 00:13:23;;;;;;;12.13;2.80;;;;;;;-145.18;100.00;46711.19;5045297;28;20377;-63
2023/05/24 00:15:48;;;;;;;18.90;3.00;;;;;;;-145.18;100.00;46709.22;5042232;28;20033;-63
2023/05/24 00:18:16;;;;;;;12.57;2.67;;;;;;;-145.18;100.00;46707.28;5037666;28;20524;-63
2023/05/24 00:20:41;;;;;;;18.00;3.83;;;;;;;-145.18;100.00;46707.28;5047484;28;20470;-63
2023/05/24 00:23:07;;;;;;;11.57;3.00;;;;;;;-145.18;100.00;46711.19;5016375;28;20274;-63
2023/05/24 00:25:32;;;;;;;13.60;3.00;;;;;;;-145.18;100.00;46705.31;5047337;28;20036;-63
2023/05/24 00:27:58;;;;;;;11.90;2.90;;;;;;;-145.18;100.00;46707.28;5027817;28;20040;-63
2023/05/24 00:30:23;;;;;;;14.60;3.03;;;;;;;-145.18;100.00;46705.31;5042443;28;20029;-63
2023/05/24 00:32:48;;;;;;;11.70;3.13;;;;;;;-145.18;100.00;46709.22;5041793;28;20094;-63
2023/05/24 00:35:14;;;;;;;25.67;4.10;;;;;;;-145.18;100.00;46709.22;5040374;28;20039;-63
2023/05/24 00:37:43;;;;;;;17.63;3.57;;;;;;;-145.18;100.00;46707.28;5039536;28;20136;-63
2023/05/24 00:40:09;;;;;;;16.93;3.70;;;;;;;-145.18;100.00;46705.31;5040078;28;20037;-63
2023/05/24 00:42:35;;;;;;;9.83;3.20;;;;;;;-145.18;100.00;46707.28;5037187;28;20308;-63
2023/05/24 00:45:00;;;;;;;13.63;3.17;;;;;;;-145.18;100.00;46707.28;5044297;28;20103;-63
2023/05/24 00:47:26;;;;;;;14.97;3.17;;;;;;;-145.18;100.00;46707.28;5040897;28;20029;-63
2023/05/24 00:49:51;;;;;;;14.63;3.70;;;;;;;-145.18;100.00;46705.31;5046544;28;20025;-64
2023/05/24 00:52:17;;;;;;;15.03;2.97;;;;;;;-145.18;100.00;46703.38;5042949;28;20379;-63
2023/05/24 00:54:42;;;;;;;11.63;3.10;;;;;;;-145.18;100.00;46705.31;5040770;28;20536;-63
2023/05/24 00:57:08;;;;;;;12.10;3.33;;;;;;;-145.18;100.00;46703.38;5045003;28;20017;-64
2023/05/24 00:59:34;;;;;;;22.67;3.33;;;;;;;-145.18;100.00;46701.41;5013215;28;20021;-64
2023/05/24 01:02:00;;;;;;;9.40;2.70;;;;;;;-145.18;100.00;46703.38;5049629;28;20090;-64
2023/05/24 01:04:26;;;;;;;17.33;3.10;;;;;;;-145.18;100.00;46693.59;5037290;28;20282;-64
2023/05/24 01:07:29;;;;;;;8.70;2.60;;;;;;;-145.18;100.00;46701.41;5043854;28;20029;-64
2023/05/24 01:10:05;;;;;;;13.13;3.00;;;;;;;-145.18;100.00;46697.50;5044138;28;20418;-64
2023/05/24 01:12:30;;;;;;;17.33;3.23;;;;;;;-145.18;100.00;46701.41;5024322;28;20655;-63
2023/05/24 01:15:24;;;;;;;20.80;3.67;;;;;;;-145.18;100.00;46691.66;5037006;28;20267;-63
2023/05/24 01:18:11;;;;;;;18.50;3.60;;;;;;;-145.18;100.00;46697.50;5044448;28;20504;-63
2023/05/24 01:20:39;;;;;;;10.63;3.00;;;;;;;-145.18;100.00;46695.56;5039067;28;20269;-63
2023/05/24 01:23:19;;;;;;;9.17;2.80;;;;;;;-145.18;100.00;46699.47;5046862;28;20404;-63
2023/05/24 01:25:54;;;;;;;11.37;3.33;;;;;;;-145.18;100.00;46699.47;5044263;28;20278;-63
2023/05/24 01:28:21;;;;;;;16.83;4.23;;;;;;;-145.18;100.00;46691.66;5041960;28;20385;-64
2023/05/24 01:30:47;;;;;;;12.10;3.73;;;;;;;-145.18;100.00;46697.50;5043204;28;20394;-63
2023/05/24 01:33:13;;;;;;;15.27;3.90;;;;;;;-145.18;100.00;46685.78;5042094;28;20783;-63
2023/05/24 01:35:41;;;;;;;13.57;3.07;;;;;;;-145.18;100.00;46683.84;5020205;28;20306;-64
2023/05/24 01:38:09;;;;;;;6.27;3.00;;;;;;;-145.18;100.00;46691.66;5040822;28;20029;-63
2023/05/24 01:40:36;;;;;;;19.37;3.80;;;;;;;-145.18;100.00;46679.94;5043337;28;20267;-64
2023/05/24 01:43:38;;;;;;;14.37;3.33;;;;;;;-145.18;100.00;46677.97;5024200;28;20639;-63
2023/05/24 01:46:15;;;;;;;15.53;3.30;;;;;;;-145.18;100.00;46674.06;5038488;28;20266;-63
2023/05/24 01:49:00;;;;;;;13.80;3.53;;;;;;;-145.18;100.00;46677.97;5037253;28;20266;-63
2023/05/24 01:51:33;;;;;;;18.87;3.07;;;;;;;-145.18;100.00;46679.94;5019426;28;20660;-63
2023/05/24 01:54:00;;;;;;;9.93;3.27;;;;;;;-145.18;100.00;46674.06;5038590;28;20274;-63
2023/05/24 01:56:28;;;;;;;12.77;3.77;;;;;;;-145.18;100.00;46676.03;5046588;28;20296;-63
2023/05/24 01:58:55;;;;;;;14.17;3.73;;;;;;;-145.18;100.00;46676.03;5046751;28;20270;-63
2023/05/24 02:01:22;;;;;;;20.47;4.10;;;;;;;-145.18;100.00;46676.03;5041632;28;20270;-63
2023/05/24 02:03:49;;;;;;;26.20;4.03;;;;;;;-145.18;100.00;46679.94;5033111;28;20275;-63
2023/05/24 02:06:14;;;;;;;19.53;3.60;;;;;;;-145.18;100.00;46672.13;5040492;28;20704;-64
2023/05/24 02:08:40;;;;;;;14.63;3.97;;;;;;;-145.18;100.00;46670.16;5041836;28;20266;-64
2023/05/24 02:11:05;;;;;;;16.60;3.83;;;;;;;-145.18;100.00;46670.16;5040479;28;20057;-63
2023/05/24 02:13:30;;;;;;;10.60;3.53;;;;;;;-145.18;100.00;46670.16;5022781;28;20025;-64
2023/05/24 02:15:56;;;;;;;24.73;4.53;;;;;;;-145.18;100.00;46672.13;5043705;28;20444;-63
2023/05/24 02:18:21;;;;;;;11.27;4.30;;;;;;;-145.18;100.00;46670.16;5045839;28;20104;-63
2023/05/24 02:20:47;;;;;;;20.73;4.27;;;;;;;-145.18;100.00;46677.97;5044196;28;20039;-63
2023/05/24 02:23:13;;;;;;;11.23;3.47;;;;;;;-145.18;100.00;46664.31;5041750;28;20478;-63
2023/05/24 02:25:38;;;;;;;10.80;3.70;;;;;;;-145.18;100.00;46662.34;5037594;28;20086;-63
2023/05/24 02:28:04;;;;;;;22.50;4.33;;;;;;;-145.18;100.00;46660.41;5035804;28;20287;-63
2023/05/24 02:30:29;;;;;;;11.50;2.93;;;;;;;-145.18;100.00;46672.13;5042263;28;20518;-64
2023/05/24 02:32:55;;;;;;;20.63;3.67;;;;;;;-145.18;100.00;46664.31;5048158;28;20048;-64
2023/05/24 02:35:20;;;;;;;14.40;3.83;;;;;;;-145.18;100.00;46668.22;5018797;28;20083;-63
2023/05/24 02:37:46;;;;;;;12.53;3.80;;;;;;;-145.18;100.00;46668.22;5044324;28;20037;-64
2023/05/24 02:40:11;;;;;;;16.77;4.20;;;;;;;-145.18;100.00;46668.22;5037936;28;20033;-63
2023/05/24 02:42:37;;;;;;;17.57;3.27;;;;;;;-145.18;100.00;46660.41;5044686;28;20028;-64
2023/05/24 02:45:02;;;;;;;13.93;3.87;;;;;;;-145.18;100.00;46666.25;5043541;28;20136;-63
2023/05/24 02:47:28;;;;;;;20.57;3.67;;;;;;;-145.18;100.00;46666.25;5027340;28;20087;-63
2023/05/24 02:49:53;;;;;;;19.37;4.43;;;;;;;-145.18;100.00;46660.41;5038423;28;20045;-64
2023/05/24 02:52:22;;;;;;;17.97;3.70;;;;;;;-145.18;100.00;46664.31;5020432;28;20037;-64
2023/05/24 02:54:48;;;;;;;13.23;4.23;;;;;;;-145.18;100.00;46664.31;5039657;28;20409;-64
2023/05/24 02:57:15;;;;;;;18.17;3.83;;;;;;;-145.18;100.00;46662.34;5025661;28;20395;-64
2023/05/24 02:59:40;;;;;;;15.40;3.53;;;;;;;-145.18;100.00;46668.22;5040962;28;20361;-64
2023/05/24 03:02:06;;;;;;;15.70;3.80;;;;;;;-145.18;100.00;46672.13;5025380;28;20327;-63
2023/05/24 03:04:31;;;;;;;15.70;4.30;;;;;;;-145.18;100.00;46666.25;5038404;28;20600;-64
2023/05/24 03:06:56;;;;;;;17.33;3.10;;;;;;;-145.18;100.00;46666.25;5042606;28;20033;-64
2023/05/24 03:09:22;;;;;;;14.03;3.50;;;;;;;-145.18;100.00;46658.44;5040475;28;20037;-64
2023/05/24 03:11:47;;;;;;;16.03;4.07;;;;;;;-145.18;100.00;46660.41;5042448;28;20040;-64
2023/05/24 03:14:13;;;;;;;14.77;3.83;;;;;;;-145.18;100.00;46662.34;5039741;28;20032;-64
2023/05/24 03:16:39;;;;;;;17.30;3.70;;;;;;;-145.18;100.00;46660.41;5033395;28;20411;-64
2023/05/24 03:19:04;;;;;;;11.50;3.30;;;;;;;-145.18;100.00;46662.34;5042485;28;20513;-64
2023/05/24 03:21:30;;;;;;;17.63;3.47;;;;;;;-145.18;100.00;46668.22;5038962;28;20022;-64
2023/05/24 03:23:56;;;;;;;10.37;3.37;;;;;;;-145.18;100.00;46672.13;5024322;28;20059;-64
2023/05/24 03:26:22;;;;;;;13.03;2.60;;;;;;;-145.18;100.00;46664.31;5038166;28;20274;-64
2023/05/24 03:28:49;;;;;;;5.77;2.40;;;;;;;-145.18;100.00;46660.41;5040115;28;20037;-64
2023/05/24 03:31:15;;;;;;;8.30;2.93;;;;;;;-145.18;100.00;46660.41;5033663;28;20090;-64
2023/05/24 03:33:40;;;;;;;6.83;3.53;;;;;;;-145.18;100.00;46662.34;5039862;28;20274;-64
2023/05/24 03:36:06;;;;;;;5.47;2.57;;;;;;;-145.18;100.00;46662.34;5040784;28;20274;-64
2023/05/24 03:38:32;;;;;;;11.53;3.03;;;;;;;-145.18;100.00;46656.50;5037770;28;20057;-64
2023/05/24 03:40:58;;;;;;;9.13;3.50;;;;;;;-145.18;100.00;46660.41;5044689;28;20078;-64
2023/05/24 03:43:24;;;;;;;9.40;2.97;;;;;;;-145.18;100.00;46666.25;5021609;28;20274;-64
2023/05/24 03:45:50;;;;;;;13.53;3.13;;;;;;;-145.18;100.00;46670.16;5041950;28;20040;-64
2023/05/24 03:48:15;;;;;;;12.07;3.07;;;;;;;-145.18;100.00;46668.22;5035718;28;20526;-64
2023/05/24 03:50:40;;;;;;;13.23;3.57;;;;;;;-145.18;100.00;46660.41;5046929;28;20090;-64
2023/05/24 03:53:06;;;;;;;14.63;3.77;;;;;;;-145.18;100.00;46670.16;5019756;28;20057;-64
2023/05/24 03:55:31;;;;;;;14.20;3.83;;;;;;;-145.18;100.00;46664.31;5019173;28;20043;-64
2023/05/24 03:57:57;;;;;;;16.00;3.13;;;;;;;-145.18;100.00;46662.34;5034670;28;20031;-64
2023/05/24 04:00:22;;;;;;;9.27;2.90;;;;;;;-145.18;100.00;46666.25;5040122;28;20112;-64
2023/05/24 04:02:47;;;;;;;9.47;3.57;;;;;;;-145.18;100.00;46666.25;5047358;28;20033;-64
2023/05/24 04:05:13;;;;;;;11.20;3.37;;;;;;;-145.18;100.00;46672.13;5040703;28;20049;-64
2023/05/24 04:07:39;;;;;;;11.90;3.23;;;;;;;-145.18;100.00;46670.16;5038942;28;20483;-64
2023/05/24 04:10:06;;;;;;;10.87;3.40;;;;;;;-145.18;100.00;46664.31;5045862;28;20406;-64
2023/05/24 04:12:32;;;;;;;13.60;3.30;;;;;;;-145.18;100.00;46664.31;5036111;28;20433;-64
2023/05/24 04:14:59;;;;;;;6.87;3.20;;;;;;;-145.18;100.00;46668.22;5044959;28;20285;-64
2023/05/24 04:17:25;;;;;;;15.43;3.50;;;;;;;-145.18;100.00;46664.31;5042729;28;20277;-64
2023/05/24 04:19:51;;;;;;;15.50;3.63;;;;;;;-145.18;100.00;46664.31;5045373;28;20710;-64
2023/05/24 04:22:17;;;;;;;8.03;3.00;;;;;;;-145.18;100.00;46664.31;5037380;28;20271;-64
2023/05/24 04:24:46;;;;;;;7.03;3.30;;;;;;;-145.18;100.00;46664.31;5023268;28;20077;-64
2023/05/24 04:27:12;;;;;;;8.40;3.03;;;;;;;-145.18;100.00;46668.22;5048369;28;20028;-64
2023/05/24 04:29:40;;;;;;;10.67;3.07;;;;;;;-145.18;100.00;46664.31;5032118;28;20700;-64
2023/05/24 04:32:08;;;;;;;14.83;4.40;;;;;;;-145.18;100.00;46674.06;5030987;28;20871;-64
2023/05/24 04:34:34;;;;;;;8.13;3.07;;;;;;;-145.18;100.00;46672.13;5050715;28;20269;-64
2023/05/24 04:37:00;;;;;;;14.07;3.63;;;;;;;-145.18;100.00;46668.22;5042493;28;21096;-64
2023/05/24 04:39:26;;;;;;;14.27;3.20;;;;;;;-145.18;100.00;46672.13;5040359;28;20033;-64
2023/05/24 04:41:53;;;;;;;22.47;4.73;;;;;;;-145.18;100.00;46662.34;5023703;28;20381;-64
2023/05/24 04:44:19;;;;;;;14.23;3.60;;;;;;;-145.18;100.00;46664.31;5016629;28;20037;-64
2023/05/24 04:46:44;;;;;;;11.80;4.43;;;;;;;-145.18;100.00;46672.13;5036896;28;20774;-64
2023/05/24 04:49:10;;;;;;;12.47;4.17;;;;;;;-145.18;100.00;46668.22;5053113;28;20040;-64
2023/05/24 04:51:37;;;;;;;13.53;3.50;;;;;;;-145.18;100.00;46668.22;5034346;28;20036;-64
2023/05/24 04:54:07;;;;;;;18.07;5.53;;;;;;;-145.18;100.00;46664.31;5054432;28;20402;-64
2023/05/24 04:56:34;;;;;;;24.40;4.33;;;;;;;-145.18;100.00;46664.31;5054423;28;20348;-64
2023/05/24 04:58:59;;;;;;;15.70;4.87;;;;;;;-145.18;100.00;46658.44;5054052;28;20616;-64
2023/05/24 05:01:25;;;;;;;19.90;4.30;;;;;;;-145.18;100.00;46656.50;5054025;28;20270;-64
2023/05/24 05:03:50;;;;;;;9.97;4.23;;;;;;;-145.18;100.00;46654.53;5053924;28;20033;-64
2023/05/24 05:06:15;;;;;;;14.40;4.03;;;;;;;-145.18;100.00;46654.53;5036185;28;20055;-64
2023/05/24 05:08:41;;;;;;;18.27;5.43;;;;;;;-145.18;100.00;46652.59;5044330;28;20484;-64
2023/05/24 05:11:06;;;;;;;19.10;4.93;;;;;;;-145.18;100.00;46650.63;5041309;28;20131;-64
2023/05/24 05:13:31;;;;;;;28.20;4.73;;;;;;;-145.18;100.00;46654.53;5025124;28;20029;-64
2023/05/24 05:15:57;;;;;;;19.30;4.60;;;;;;;-145.18;100.00;46654.53;5042201;28;20057;-64
2023/05/24 05:18:22;;;;;;;16.17;4.17;;;;;;;-145.18;100.00;46650.63;5041607;28;20052;-64
2023/05/24 05:20:48;;;;;;;24.43;4.63;;;;;;;-145.18;100.00;46652.59;5009754;28;20044;-64
2023/05/24 05:23:13;;;;;;;15.17;4.20;;;;;;;-145.18;100.00;46648.69;5042475;28;20036;-64
2023/05/24 05:25:38;;;;;;;19.17;4.10;;;;;;;-145.18;100.00;46646.72;5043783;28;20082;-64
2023/05/24 05:28:04;;;;;;;22.77;4.40;;;;;;;-145.18;100.00;46650.63;5043079;28;20033;-64
2023/05/24 05:30:30;;;;;;;18.03;4.50;;;;;;;-145.18;100.00;46654.53;5041613;28;20147;-64
2023/05/24 05:32:55;;;;;;;23.50;4.40;;;;;;;-145.18;100.00;46660.41;5042111;28;20036;-64
2023/05/24 05:35:20;;;;;;;21.93;4.77;;;;;;;-145.18;100.00;46662.34;5042887;28;20036;-64
2023/05/24 05:37:46;;;;;;;15.30;4.40;;;;;;;-145.18;100.00;46656.50;5041099;28;20108;-64
2023/05/24 05:40:11;;;;;;;14.63;3.80;;;;;;;-145.18;100.00;46656.50;5042939;28;20064;-63
2023/05/24 05:42:36;;;;;;;19.60;4.20;;;;;;;-145.18;100.00;46664.31;5044005;28;20475;-64
2023/05/24 05:45:02;;;;;;;19.23;3.93;;;;;;;-145.18;100.00;46654.53;5036523;28;20451;-64
2023/05/24 05:47:28;;;;;;;15.60;5.43;;;;;;;-145.18;100.00;46662.34;5032700;28;20026;-64
2023/05/24 05:49:53;;;;;;;24.50;5.57;;;;;;;-145.18;100.00;46666.25;5052100;28;20040;-64
2023/05/24 05:52:18;;;;;;;26.90;4.97;;;;;;;-145.18;100.00;46664.31;5053444;28;20116;-64
2023/05/24 05:54:44;;;;;;;23.67;4.60;;;;;;;-145.18;100.00;46664.31;5053254;28;20383;-64
2023/05/24 05:57:10;;;;;;;19.83;5.13;;;;;;;-145.18;100.00;46668.22;5052825;28;20095;-64
2023/05/24 05:59:37;;;;;;;21.27;4.77;;;;;;;-145.18;100.00;46664.31;5035254;28;20048;-64
2023/05/24 06:02:04;;;;;;;19.73;5.03;;;;;;;-145.18;100.00;46666.25;5052903;28;20761;-64
2023/05/24 06:04:30;;;;;;;14.43;4.63;;;;;;;-145.18;100.00;46672.13;5053164;28;20272;-64
2023/05/24 06:06:55;;;;;;;14.40;5.03;;;;;;;-145.18;100.00;46668.22;5052920;28;20654;-64
2023/05/24 06:09:21;;;;;;;20.30;5.00;;;;;;;-145.18;100.00;46670.16;5052625;28;20032;-64
2023/05/24 06:11:46;;;;;;;23.67;4.93;;;;;;;-145.18;100.00;46674.06;5042329;28;20029;-63
2023/05/24 06:14:17;;;;;;;20.40;5.20;;;;;;;-145.18;100.00;46674.06;5039089;28;20040;-64
2023/05/24 06:16:44;;;;;;;12.30;4.50;;;;;;;-145.18;100.00;46672.13;5035042;28;20049;-64
2023/05/24 06:19:10;;;;;;;13.93;5.03;;;;;;;-145.18;100.00;46668.22;5032780;28;20271;-64
2023/05/24 06:21:36;;;;;;;16.40;4.43;;;;;;;-145.18;100.00;46676.03;5032787;28;20259;-64
2023/05/24 06:24:03;;;;;;;17.17;5.03;;;;;;;-145.18;100.00;46672.13;5031743;28;20502;-64
2023/05/24 06:26:29;;;;;;;21.00;5.87;;;;;;;-145.18;100.00;46672.13;5032785;28;20300;-65
2023/05/24 06:28:54;;;;;;;19.00;6.20;;;;;;;-145.18;100.00;46670.16;5032826;28;20754;-64
2023/05/24 06:31:20;;;;;;;24.57;5.37;;;;;;;-145.18;100.00;46676.03;5032631;28;20037;-64
2023/05/24 06:33:45;;;;;;;19.73;4.90;;;;;;;-145.18;100.00;46676.03;5032773;28;20061;-64
2023/05/24 06:36:10;;;;;;;17.03;4.80;;;;;;;-145.18;100.00;46679.94;5032428;28;20095;-64
2023/05/24 06:38:36;;;;;;;14.23;5.07;;;;;;;-145.18;100.00;46677.97;5014555;28;20032;-64
2023/05/24 06:41:01;;;;;;;20.67;5.23;;;;;;;-145.18;100.00;46683.84;5032669;28;20060;-64
2023/05/24 06:43:27;;;;;;;13.27;4.07;;;;;;;-145.18;100.00;46683.84;5032544;28;20037;-64
2023/05/24 06:45:52;;;;;;;16.70;4.97;;;;;;;-145.18;100.00;46674.06;5014598;28;20533;-64
2023/05/24 06:48:18;;;;;;;18.03;4.03;;;;;;;-145.18;100.00;46674.06;5032332;28;20040;-64
2023/05/24 06:50:44;;;;;;;15.43;4.30;;;;;;;-145.18;100.00;46660.41;5032182;28;20073;-64
2023/05/24 06:53:09;;;;;;;21.30;5.87;;;;;;;-145.18;100.00;46658.44;5014571;28;20034;-64
2023/05/24 06:55:35;;;;;;;20.57;5.60;;;;;;;-145.18;100.00;46631.09;5032490;28;20040;-64
2023/05/24 06:58:00;;;;;;;25.73;5.03;;;;;;;-145.18;100.00;46615.47;5032183;28;20041;-64
2023/05/24 07:00:26;;;;;;;18.63;5.03;;;;;;;-145.18;100.00;46590.06;5043630;28;20033;-64
2023/05/24 07:02:52;;;;;;;27.40;6.37;;;;;;;-145.18;100.00;46588.13;5034671;28;20029;-64
2023/05/24 07:05:17;;;;;;;18.43;4.97;;;;;;;-145.18;100.00;46566.63;5034202;28;20452;-64
2023/05/24 07:07:43;;;;;;;16.83;6.00;;;;;;;-145.18;100.00;46564.69;5051890;28;20387;-64
2023/05/24 07:10:10;;;;;;;17.70;4.83;;;;;;;-145.18;100.00;46549.06;5054384;28;20089;-64
2023/05/24 07:12:36;;;;;;;19.40;5.57;;;;;;;-145.18;100.00;46551.00;5047486;28;20044;-65
2023/05/24 07:15:02;;;;;;;21.03;5.17;;;;;;;-145.18;100.00;46552.97;5054203;28;20037;-64
2023/05/24 07:17:27;;;;;;;17.93;4.83;;;;;;;-145.18;100.00;46564.69;5052072;28;20025;-64
2023/05/24 07:19:53;;;;;;;14.50;4.33;;;;;;;-145.18;100.00;46566.63;5048243;28;20065;-64
2023/05/24 07:22:18;;;;;;;23.80;4.93;;;;;;;-145.18;100.00;46574.44;5046468;28;20029;-64
2023/05/24 07:24:44;;;;;;;21.60;5.70;;;;;;;-145.18;100.00;46574.44;5045341;28;20505;-64
2023/05/24 07:27:09;;;;;;;15.53;5.27;;;;;;;-145.18;100.00;46576.41;5048935;28;20045;-64
2023/05/24 07:29:35;;;;;;;16.47;5.13;;;;;;;-145.18;100.00;46586.16;5053793;28;20561;-64
2023/05/24 07:32:00;;;;;;;13.67;4.97;;;;;;;-145.18;100.00;46595.94;5070892;28;20024;-64
2023/05/24 07:34:28;;;;;;;15.10;5.23;;;;;;;-145.18;100.00;46592.03;5061572;28;20117;-64
2023/05/24 07:36:54;;;;;;;22.33;5.67;;;;;;;-145.18;100.00;46592.03;5054925;28;20021;-64
2023/05/24 07:39:20;;;;;;;14.93;5.03;;;;;;;-145.18;100.00;46607.66;5037312;28;20044;-64
2023/05/24 07:41:46;;;;;;;16.33;5.77;;;;;;;-145.18;100.00;46607.66;5037032;28;20486;-64
2023/05/24 07:44:12;;;;;;;18.63;5.73;;;;;;;-145.18;100.00;46611.56;5045319;28;20055;-64
2023/05/24 07:46:38;;;;;;;21.73;6.07;;;;;;;-145.18;100.00;46593.97;5035258;28;20040;-64
2023/05/24 07:49:03;;;;;;;28.10;6.20;;;;;;;-145.18;100.00;46619.38;5043410;28;20029;-64
2023/05/24 07:51:29;;;;;;;15.40;5.37;;;;;;;-145.18;100.00;46613.50;5043363;28;20029;-64
2023/05/24 07:53:54;;;;;;;20.10;6.70;;;;;;;-145.18;100.00;46609.59;5043585;28;20078;-64
2023/05/24 07:56:20;;;;;;;16.33;5.00;;;;;;;-145.18;100.00;46597.88;5045543;28;20086;-64
2023/05/24 07:58:46;;;;;;;17.23;5.13;;;;;;;-145.18;100.00;46609.59;5037969;28;20417;-64
2023/05/24 08:01:14;;;;;;;14.63;4.73;;;;;;;-145.18;100.00;46638.91;5035432;28;20025;-64
2023/05/24 08:03:40;;;;;;;11.90;5.30;;;;;;;-145.18;100.00;46666.25;5035027;28;20029;-64
2023/05/24 08:06:05;;;;;;;18.63;5.47;;;;;;;-145.18;100.00;46681.88;5017359;28;20032;-64
2023/05/24 08:08:31;;;;;;;15.50;5.30;;;;;;;-145.18;100.00;46687.75;5000730;28;20021;-64
2023/05/24 08:10:56;;;;;;;17.50;4.77;;;;;;;-145.18;100.00;46717.03;5017274;28;20554;-64
2023/05/24 08:13:21;;;;;;;14.30;4.97;;;;;;;-145.18;100.00;46730.72;5017491;28;20030;-64
2023/05/24 08:15:47;;;;;;;11.27;4.23;;;;;;;-145.18;100.00;47101.88;5017268;28;20529;-64
2023/05/24 08:18:12;;;;;;;14.27;4.80;;;;;;;-145.18;100.00;47351.94;5055206;28;20111;-64
2023/05/24 08:20:38;;;;;;;12.17;5.13;;;;;;;-145.18;100.00;47254.25;5074889;28;20028;-65
2023/05/24 08:23:03;;;;;;;14.40;4.87;;;;;;;-145.18;100.00;46933.88;5056936;28;20086;-64
2023/05/24 08:25:29;;;;;;;13.73;5.27;;;;;;;-145.18;100.00;47133.13;5040023;28;20421;-64
2023/05/24 08:27:56;;;;;;;14.83;5.07;;;;;;;-145.18;100.00;47332.41;5074428;28;20040;-64
2023/05/24 08:30:22;;;;;;;11.13;5.77;;;;;;;-145.18;100.00;47295.28;5075017;28;20035;-64
2023/05/24 08:32:47;;;;;;;9.60;4.53;;;;;;;-145.18;100.00;47367.56;5056959;28;20032;-65
2023/05/24 08:35:13;;;;;;;13.03;5.33;;;;;;;-145.18;100.00;47379.28;5074528;28;20082;-64
2023/05/24 08:37:38;;;;;;;18.20;5.60;;;;;;;-145.18;100.00;47324.59;5056453;28;20478;-64
2023/05/24 08:40:04;;;;;;;11.40;5.37;;;;;;;-145.18;100.00;47357.78;5056455;28;20028;-64
2023/05/24 08:42:30;;;;;;;13.10;5.07;;;;;;;-145.18;100.00;47336.31;5074810;28;20115;-64
2023/05/24 08:45:25;;;;;;;18.13;6.07;;;;;;;-145.18;100.00;47332.41;5056888;28;20158;-64
2023/05/24 08:47:50;;;;;;;15.10;5.20;;;;;;;-145.18;100.00;47318.72;5070933;28;20040;-64
2023/05/24 08:50:17;;;;;;;10.73;5.00;;;;;;;-145.18;100.00;47301.16;5074339;28;20120;-64
2023/05/24 08:52:44;;;;;;;11.80;4.70;;;;;;;-145.18;100.00;47353.88;5074379;28;20397;-64
2023/05/24 08:55:10;;;;;;;14.03;5.63;;;;;;;-145.18;100.00;47387.09;5073972;28;20375;-64
2023/05/24 08:57:40;;;;;;;11.90;5.23;;;;;;;-145.18;100.00;47402.72;5073966;28;20035;-64
2023/05/24 09:00:10;;;;;;;14.00;5.17;;;;;;;-145.18;100.00;47318.72;5074104;28;20505;-64
2023/05/24 09:02:38;;;;;;;15.23;5.37;;;;;;;-145.18;100.00;47316.78;5074466;28;20035;-65
2023/05/24 09:05:04;;;;;;;12.47;4.73;;;;;;;-145.18;100.00;47271.84;5074357;28;20103;-64
2023/05/24 09:07:30;;;;;;;16.20;5.47;;;;;;;-145.18;100.00;47285.50;5074171;28;20063;-65
2023/05/24 09:10:00;;;;;;;11.87;4.87;;;;;;;-145.18;100.00;47299.19;5074021;28;20059;-64
2023/05/24 09:12:28;;;;;;;8.00;4.63;;;;;;;-145.18;100.00;47289.41;5073915;28;20552;-64
2023/05/24 09:14:54;;;;;;;11.53;5.20;;;;;;;-145.18;100.00;47328.50;5056637;28;20654;-64
2023/05/24 09:17:20;;;;;;;12.97;3.93;;;;;;;-145.18;100.00;47283.56;5073827;28;20029;-64
2023/05/24 09:19:45;;;;;;;9.93;2.70;;;;;;;-145.18;100.00;47238.63;5073524;28;20120;-64
2023/05/24 09:22:24;;;;;;;12.03;3.83;;;;;;;-145.18;100.00;47242.53;5073750;28;20036;-64
2023/05/24 09:24:50;;;;;;;8.40;2.70;;;;;;;-145.18;100.00;47211.28;5073533;28;20056;-64
2023/05/24 09:27:17;;;;;;;14.37;3.50;;;;;;;-145.18;100.00;47279.66;5059052;28;20025;-64
2023/05/24 09:29:47;;;;;;;15.33;4.63;;;;;;;-145.18;100.00;47303.09;5052662;28;20075;-64
2023/05/24 09:32:17;;;;;;;8.63;3.63;;;;;;;-145.18;100.00;47293.31;5053836;28;20047;-64
2023/05/24 09:34:46;;;;;;;13.40;4.13;;;;;;;-145.18;100.00;47271.84;5053536;28;20029;-64
2023/05/24 09:37:16;;;;;;;13.03;4.17;;;;;;;-145.18;100.00;47252.31;5053748;28;20032;-64
2023/05/24 09:39:52;;;;;;;10.97;4.13;;;;;;;-145.18;100.00;47242.53;5053575;28;20024;-65
2023/05/24 09:42:20;;;;;;;;;;;;;;;-145.18;100.00;47242.53;5053960;28;20517;-64
2023/05/24 09:44:48;;;;;;;9.97;3.07;;;;;;;-145.18;100.00;47215.19;5050393;28;20058;-65
2023/05/24 09:47:14;;;;;;;8.03;3.87;;;;;;;-145.18;100.00;47193.69;5049726;28;20043;-64
2023/05/24 09:49:40;;;;;;;12.67;3.20;;;;;;;-145.18;100.00;47228.84;5053067;28;20401;-64
2023/05/24 09:52:05;;;;;;;13.63;3.03;;;;;;;-145.18;100.00;47211.28;5035402;28;20025;-64
2023/05/24 09:54:32;;;;;;;12.00;3.10;;;;;;;-145.18;100.00;47193.69;5053408;28;20563;-64
2023/05/24 09:57:02;;;;;;;8.90;2.87;;;;;;;-145.18;100.00;47195.66;5052933;28;20040;-64
2023/05/24 09:59:32;;;;;;;8.90;3.10;;;;;;;-145.18;100.00;47183.94;5052993;28;20165;-64
2023/05/24 10:02:10;;;;;;;9.87;3.10;;;;;;;-145.18;100.00;47201.50;5053234;28;20096;-64
2023/05/24 10:04:37;;;;;;;10.33;3.60;;;;;;;-145.18;100.00;47226.91;5053137;28;20051;-64
2023/05/24 10:07:05;;;;;;;16.77;2.90;;;;;;;-145.18;100.00;47211.28;5053072;28;20029;-64
2023/05/24 10:09:32;;;;;;;11.90;3.27;;;;;;;-145.18;100.00;47199.56;5052766;28;20037;-64
2023/05/24 10:12:03;;;;;;;6.07;3.23;;;;;;;-145.18;100.00;47180.03;5052767;28;20029;-64
2023/05/24 10:14:41;;;;;;;10.60;3.73;;;;;;;-145.18;100.00;47203.47;5053080;28;20033;-64
2023/05/24 10:17:06;;;;;;;12.03;3.60;;;;;;;-145.18;100.00;47234.72;5052751;28;20056;-64
2023/05/24 10:19:36;;;;;;;12.97;3.17;;;;;;;-145.18;100.00;47183.94;5052958;28;20048;-64
2023/05/24 10:22:06;;;;;;;12.60;4.50;;;;;;;-145.18;100.00;47170.25;5052952;28;20053;-64
2023/05/24 10:24:35;;;;;;;12.33;3.30;;;;;;;-145.18;100.00;47172.19;5034624;28;20053;-64
2023/05/24 10:27:06;;;;;;;10.43;2.90;;;;;;;-145.18;100.00;47189.78;5037580;28;20038;-64
2023/05/24 10:29:58;;;;;;;6.27;2.83;;;;;;;-145.18;100.00;47223.00;5035536;28;20033;-64
2023/05/24 10:32:30;;;;;;;8.50;2.80;;;;;;;-145.18;100.00;47203.47;5032346;28;20033;-64
2023/05/24 10:34:57;;;;;;;9.50;2.97;;;;;;;-145.18;100.00;47219.09;5032631;28;20585;-64
2023/05/24 10:37:25;;;;;;;8.90;3.03;;;;;;;-145.18;100.00;47199.56;5032512;28;20479;-64
2023/05/24 10:39:50;;;;;;;9.87;2.90;;;;;;;-145.18;100.00;47226.91;5032625;28;20033;-64
2023/05/24 10:42:16;;;;;;;7.67;3.10;;;;;;;-145.18;100.00;47238.63;5032748;28;20391;-64
2023/05/24 10:44:42;;;;;;;9.70;3.10;;;;;;;-145.18;100.00;47234.72;5032645;28;20026;-64
2023/05/24 10:47:12;;;;;;;12.10;3.00;;;;;;;-145.18;100.00;47234.72;5032315;28;20040;-64
2023/05/24 10:49:47;;;;;;;11.37;4.00;;;;;;;-145.18;100.00;47242.53;5015555;28;20036;-64
2023/05/24 10:52:12;;;;;;;9.37;3.23;;;;;;;-145.18;100.00;47203.47;5037723;28;20071;-64
2023/05/24 10:54:38;;;;;;;12.43;3.70;;;;;;;-145.18;100.00;47191.75;5024680;28;20029;-64
2023/05/24 10:57:05;;;;;;;15.57;3.63;;;;;;;-145.18;100.00;47219.09;5042547;28;20370;-64
2023/05/24 10:59:36;;;;;;;8.87;2.80;;;;;;;-145.18;100.00;47244.50;5031914;28;20037;-64
2023/05/24 11:02:14;;;;;;;12.77;3.03;;;;;;;-145.18;100.00;47232.75;5032094;28;20079;-64